sensor_id;sensor_type;location;lat;lon;timestamp;temperature;humidity
12254;DHT22;6189;52.526;13.390;2024-02-21T00:00:53;10.70;99.90
12254;DHT22;6189;52.526;13.390;2024-02-21T00:03:40;10.70;99.90
12254;DHT22;6189;52.526;13.390;2024-02-21T00:06:27;10.70;99.90
12254;DHT22;6189;52.526;13.390;2024-02-21T00:09:14;10.70;99.90
12254;DHT22;6189;52.526;13.390;2024-02-21T00:12:02;10.70;99.90
12254;DHT22;6189;52.526;13.390;2024-02-21T00:14:49;10.70;99.90
12254;DHT22;6189;52.526;13.390;2024-02-21T00:17:38;10.60;99.90
12254;DHT22;6189;52.526;13.390;2024-02-21T00:20:25;10.70;99.90
12254;DHT22;6189;52.526;13.390;2024-02-21T00:23:12;10.80;99.90
12254;DHT22;6189;52.526;13.390;2024-02-21T00:25:59;10.70;99.90
12254;DHT22;6189;52.526;13.390;2024-02-21T00:28:46;10.70;99.90
12254;DHT22;6189;52.526;13.390;2024-02-21T00:31:33;10.70;99.90
12254;DHT22;6189;52.526;13.390;2024-02-21T00:34:22;10.70;99.90
12254;DHT22;6189;52.526;13.390;2024-02-21T00:37:10;10.60;99.90
12254;DHT22;6189;52.526;13.390;2024-02-21T00:39:57;10.60;99.90
12254;DHT22;6189;52.526;13.390;2024-02-21T00:42:44;10.50;99.90
12254;DHT22;6189;52.526;13.390;2024-02-21T00:45:31;10.60;99.90
12254;DHT22;6189;52.526;13.390;2024-02-21T00:48:18;10.50;99.90
12254;DHT22;6189;52.526;13.390;2024-02-21T00:51:07;10.60;99.90
12254;DHT22;6189;52.526;13.390;2024-02-21T00:53:54;10.60;99.90
12254;DHT22;6189;52.526;13.390;2024-02-21T00:56:42;10.60;99.90
12254;DHT22;6189;52.526;13.390;2024-02-21T00:59:29;10.60;99.90
12254;DHT22;6189;52.526;13.390;2024-02-21T01:02:17;10.60;99.90
12254;DHT22;6189;52.526;13.390;2024-02-21T01:05:05;10.60;99.90
12254;DHT22;6189;52.526;13.390;2024-02-21T01:07:54;10.60;99.90
12254;DHT22;6189;52.526;13.390;2024-02-21T01:10:41;10.60;99.90
12254;DHT22;6189;52.526;13.390;2024-02-21T01:13:29;10.50;99.90
12254;DHT22;6189;52.526;13.390;2024-02-21T01:16:16;10.60;99.90
12254;DHT22;6189;52.526;13.390;2024-02-21T01:19:03;10.60;99.90
12254;DHT22;6189;52.526;13.390;2024-02-21T01:21:50;10.40;99.90
12254;DHT22;6189;52.526;13.390;2024-02-21T01:24:39;10.40;99.90
12254;DHT22;6189;52.526;13.390;2024-02-21T01:27:26;10.50;99.90
12254;DHT22;6189;52.526;13.390;2024-02-21T01:30:13;10.50;99.90
12254;DHT22;6189;52.526;13.390;2024-02-21T01:33:00;10.40;99.90
12254;DHT22;6189;52.526;13.390;2024-02-21T01:35:47;10.50;99.90
12254;DHT22;6189;52.526;13.390;2024-02-21T01:38:35;10.60;99.90
12254;DHT22;6189;52.526;13.390;2024-02-21T01:41:24;10.60;99.90
12254;DHT22;6189;52.526;13.390;2024-02-21T01:44:11;10.50;99.90
12254;DHT22;6189;52.526;13.390;2024-02-21T01:46:58;10.60;99.90
12254;DHT22;6189;52.526;13.390;2024-02-21T01:49:45;10.70;99.90
12254;DHT22;6189;52.526;13.390;2024-02-21T01:52:33;10.60;99.90
12254;DHT22;6189;52.526;13.390;2024-02-21T01:55:21;10.60;99.90
12254;DHT22;6189;52.526;13.390;2024-02-21T01:58:09;10.50;99.90
12254;DHT22;6189;52.526;13.390;2024-02-21T02:00:57;10.50;99.90
12254;DHT22;6189;52.526;13.390;2024-02-21T02:03:45;10.50;99.90
12254;DHT22;6189;52.526;13.390;2024-02-21T02:06:32;10.50;99.90
12254;DHT22;6189;52.526;13.390;2024-02-21T02:09:19;10.40;99.90
12254;DHT22;6189;52.526;13.390;2024-02-21T02:12:06;10.80;99.90
12254;DHT22;6189;52.526;13.390;2024-02-21T02:14:58;10.70;99.90
12254;DHT22;6189;52.526;13.390;2024-02-21T02:17:46;10.60;99.90
12254;DHT22;6189;52.526;13.390;2024-02-21T02:20:33;10.60;99.90
12254;DHT22;6189;52.526;13.390;2024-02-21T02:23:23;10.80;99.90
12254;DHT22;6189;52.526;13.390;2024-02-21T02:26:10;10.50;99.90
12254;DHT22;6189;52.526;13.390;2024-02-21T02:28:57;10.50;99.90
12254;DHT22;6189;52.526;13.390;2024-02-21T02:31:45;10.40;99.90
12254;DHT22;6189;52.526;13.390;2024-02-21T02:34:32;10.50;99.90
12254;DHT22;6189;52.526;13.390;2024-02-21T02:37:19;10.50;99.90
12254;DHT22;6189;52.526;13.390;2024-02-21T02:40:08;10.60;99.90
12254;DHT22;6189;52.526;13.390;2024-02-21T02:42:55;10.80;99.90
12254;DHT22;6189;52.526;13.390;2024-02-21T02:45:42;10.70;99.90
12254;DHT22;6189;52.526;13.390;2024-02-21T02:48:29;10.60;99.90
12254;DHT22;6189;52.526;13.390;2024-02-21T02:51:16;10.60;99.90
12254;DHT22;6189;52.526;13.390;2024-02-21T02:54:03;10.50;99.90
12254;DHT22;6189;52.526;13.390;2024-02-21T02:56:52;10.40;99.90
12254;DHT22;6189;52.526;13.390;2024-02-21T02:59:39;10.80;99.90
12254;DHT22;6189;52.526;13.390;2024-02-21T03:02:26;10.70;99.90
12254;DHT22;6189;52.526;13.390;2024-02-21T03:05:14;10.50;99.90
12254;DHT22;6189;52.526;13.390;2024-02-21T03:08:02;10.50;99.90
12254;DHT22;6189;52.526;13.390;2024-02-21T03:10:52;10.50;99.90
12254;DHT22;6189;52.526;13.390;2024-02-21T03:13:41;10.50;99.90
12254;DHT22;6189;52.526;13.390;2024-02-21T03:16:29;10.80;99.90
12254;DHT22;6189;52.526;13.390;2024-02-21T03:19:16;10.50;99.90
12254;DHT22;6189;52.526;13.390;2024-02-21T03:22:03;10.40;99.90
12254;DHT22;6189;52.526;13.390;2024-02-21T03:24:51;10.40;99.90
12254;DHT22;6189;52.526;13.390;2024-02-21T03:27:38;10.40;99.90
12254;DHT22;6189;52.526;13.390;2024-02-21T03:30:27;10.40;99.90
12254;DHT22;6189;52.526;13.390;2024-02-21T03:33:14;10.40;99.90
12254;DHT22;6189;52.526;13.390;2024-02-21T03:36:01;10.40;99.90
12254;DHT22;6189;52.526;13.390;2024-02-21T03:38:48;10.40;99.90
12254;DHT22;6189;52.526;13.390;2024-02-21T03:41:36;10.30;99.90
12254;DHT22;6189;52.526;13.390;2024-02-21T03:44:23;10.40;99.90
12254;DHT22;6189;52.526;13.390;2024-02-21T03:47:11;10.50;99.90
12254;DHT22;6189;52.526;13.390;2024-02-21T03:49:58;10.30;99.90
12254;DHT22;6189;52.526;13.390;2024-02-21T03:52:46;10.30;99.90
12254;DHT22;6189;52.526;13.390;2024-02-21T03:55:33;10.40;99.90
12254;DHT22;6189;52.526;13.390;2024-02-21T03:58:20;10.20;99.90
12254;DHT22;6189;52.526;13.390;2024-02-21T04:01:08;10.10;99.90
12254;DHT22;6189;52.526;13.390;2024-02-21T04:03:56;10.10;99.90
12254;DHT22;6189;52.526;13.390;2024-02-21T04:06:46;10.10;99.90
12254;DHT22;6189;52.526;13.390;2024-02-21T04:09:34;10.20;99.90
12254;DHT22;6189;52.526;13.390;2024-02-21T04:12:21;10.10;99.90
12254;DHT22;6189;52.526;13.390;2024-02-21T04:15:08;10.10;99.90
12254;DHT22;6189;52.526;13.390;2024-02-21T04:17:55;10.10;99.90
12254;DHT22;6189;52.526;13.390;2024-02-21T04:20:44;10.10;99.90
12254;DHT22;6189;52.526;13.390;2024-02-21T04:23:31;10.10;99.90
12254;DHT22;6189;52.526;13.390;2024-02-21T04:26:18;10.10;99.90
12254;DHT22;6189;52.526;13.390;2024-02-21T04:29:05;10.20;99.90
12254;DHT22;6189;52.526;13.390;2024-02-21T04:31:52;10.20;99.90
12254;DHT22;6189;52.526;13.390;2024-02-21T04:34:40;10.20;99.90
12254;DHT22;6189;52.526;13.390;2024-02-21T04:37:29;10.10;99.90
12254;DHT22;6189;52.526;13.390;2024-02-21T04:40:16;10.00;99.90
12254;DHT22;6189;52.526;13.390;2024-02-21T04:43:03;10.10;99.90
12254;DHT22;6189;52.526;13.390;2024-02-21T04:45:50;10.00;99.90
12254;DHT22;6189;52.526;13.390;2024-02-21T04:48:39;10.10;99.90
12254;DHT22;6189;52.526;13.390;2024-02-21T04:51:26;10.00;99.90
12254;DHT22;6189;52.526;13.390;2024-02-21T04:54:15;10.00;99.90
12254;DHT22;6189;52.526;13.390;2024-02-21T04:57:02;9.90;99.90
12254;DHT22;6189;52.526;13.390;2024-02-21T04:59:49;10.10;99.90
12254;DHT22;6189;52.526;13.390;2024-02-21T05:02:36;10.10;99.90
12254;DHT22;6189;52.526;13.390;2024-02-21T05:05:24;10.10;99.90
12254;DHT22;6189;52.526;13.390;2024-02-21T05:08:11;10.10;99.90
12254;DHT22;6189;52.526;13.390;2024-02-21T05:10:59;10.30;99.90
12254;DHT22;6189;52.526;13.390;2024-02-21T05:13:47;10.10;99.90
12254;DHT22;6189;52.526;13.390;2024-02-21T05:16:34;10.20;99.90
12254;DHT22;6189;52.526;13.390;2024-02-21T05:19:21;10.10;99.90
12254;DHT22;6189;52.526;13.390;2024-02-21T05:22:08;10.10;99.90
12254;DHT22;6189;52.526;13.390;2024-02-21T05:24:55;10.10;99.90
12254;DHT22;6189;52.526;13.390;2024-02-21T05:27:44;10.30;99.90
12254;DHT22;6189;52.526;13.390;2024-02-21T05:30:31;10.20;99.90
12254;DHT22;6189;52.526;13.390;2024-02-21T05:33:18;10.10;99.90
12254;DHT22;6189;52.526;13.390;2024-02-21T05:36:07;10.20;99.90
12254;DHT22;6189;52.526;13.390;2024-02-21T05:38:54;10.10;99.90
12254;DHT22;6189;52.526;13.390;2024-02-21T05:41:41;10.10;99.90
12254;DHT22;6189;52.526;13.390;2024-02-21T05:44:30;10.10;99.90
12254;DHT22;6189;52.526;13.390;2024-02-21T05:47:17;10.10;99.90
12254;DHT22;6189;52.526;13.390;2024-02-21T05:50:06;10.10;99.90
12254;DHT22;6189;52.526;13.390;2024-02-21T05:52:53;10.10;99.90
12254;DHT22;6189;52.526;13.390;2024-02-21T05:55:41;10.00;99.90
12254;DHT22;6189;52.526;13.390;2024-02-21T05:58:28;10.10;99.90
12254;DHT22;6189;52.526;13.390;2024-02-21T06:01:18;10.10;99.90
12254;DHT22;6189;52.526;13.390;2024-02-21T06:04:07;10.10;99.90
12254;DHT22;6189;52.526;13.390;2024-02-21T06:06:54;10.10;99.90
12254;DHT22;6189;52.526;13.390;2024-02-21T06:09:41;10.00;99.90
12254;DHT22;6189;52.526;13.390;2024-02-21T06:12:28;10.00;99.90
12254;DHT22;6189;52.526;13.390;2024-02-21T06:15:15;10.00;99.90
12254;DHT22;6189;52.526;13.390;2024-02-21T06:18:05;10.00;99.90
12254;DHT22;6189;52.526;13.390;2024-02-21T06:20:52;10.00;99.90
12254;DHT22;6189;52.526;13.390;2024-02-21T06:23:39;10.00;99.90
12254;DHT22;6189;52.526;13.390;2024-02-21T06:26:26;10.00;99.90
12254;DHT22;6189;52.526;13.390;2024-02-21T06:29:13;10.00;99.90
12254;DHT22;6189;52.526;13.390;2024-02-21T06:32:02;10.00;99.90
12254;DHT22;6189;52.526;13.390;2024-02-21T06:34:51;10.00;99.90
12254;DHT22;6189;52.526;13.390;2024-02-21T06:37:38;10.10;99.90
12254;DHT22;6189;52.526;13.390;2024-02-21T06:40:25;10.00;99.90
12254;DHT22;6189;52.526;13.390;2024-02-21T06:43:16;10.10;99.90
12254;DHT22;6189;52.526;13.390;2024-02-21T06:46:03;10.10;99.90
12254;DHT22;6189;52.526;13.390;2024-02-21T06:48:50;10.10;99.90
12254;DHT22;6189;52.526;13.390;2024-02-21T06:51:39;10.00;99.90
12254;DHT22;6189;52.526;13.390;2024-02-21T06:54:26;10.10;99.90
12254;DHT22;6189;52.526;13.390;2024-02-21T06:57:14;10.10;99.90
12254;DHT22;6189;52.526;13.390;2024-02-21T07:00:01;10.10;99.90
12254;DHT22;6189;52.526;13.390;2024-02-21T07:02:53;10.10;99.90
12254;DHT22;6189;52.526;13.390;2024-02-21T07:05:40;10.20;99.90
12254;DHT22;6189;52.526;13.390;2024-02-21T07:08:29;10.10;99.90
12254;DHT22;6189;52.526;13.390;2024-02-21T07:11:16;10.10;99.90
12254;DHT22;6189;52.526;13.390;2024-02-21T07:14:03;10.10;99.90
12254;DHT22;6189;52.526;13.390;2024-02-21T07:16:50;10.10;99.90
12254;DHT22;6189;52.526;13.390;2024-02-21T07:19:37;10.20;99.90
12254;DHT22;6189;52.526;13.390;2024-02-21T07:22:25;10.10;99.90
12254;DHT22;6189;52.526;13.390;2024-02-21T07:25:13;10.20;99.90
12254;DHT22;6189;52.526;13.390;2024-02-21T07:28:00;10.10;99.90
12254;DHT22;6189;52.526;13.390;2024-02-21T07:30:47;10.20;99.90
12254;DHT22;6189;52.526;13.390;2024-02-21T07:33:34;10.20;99.90
12254;DHT22;6189;52.526;13.390;2024-02-21T07:36:27;10.20;99.90
12254;DHT22;6189;52.526;13.390;2024-02-21T07:39:14;10.20;99.90
12254;DHT22;6189;52.526;13.390;2024-02-21T07:42:04;10.20;99.90
12254;DHT22;6189;52.526;13.390;2024-02-21T07:44:51;10.30;99.90
12254;DHT22;6189;52.526;13.390;2024-02-21T07:47:38;10.30;99.90
12254;DHT22;6189;52.526;13.390;2024-02-21T07:50:25;10.40;99.90
12254;DHT22;6189;52.526;13.390;2024-02-21T07:53:14;10.30;99.90
12254;DHT22;6189;52.526;13.390;2024-02-21T07:56:01;10.30;99.90
12254;DHT22;6189;52.526;13.390;2024-02-21T07:58:50;10.30;99.90
12254;DHT22;6189;52.526;13.390;2024-02-21T08:01:37;10.30;99.90
12254;DHT22;6189;52.526;13.390;2024-02-21T08:04:24;10.30;99.90
12254;DHT22;6189;52.526;13.390;2024-02-21T08:07:11;10.40;99.90
12254;DHT22;6189;52.526;13.390;2024-02-21T08:09:58;10.40;99.90
12254;DHT22;6189;52.526;13.390;2024-02-21T08:12:45;10.30;99.90
12254;DHT22;6189;52.526;13.390;2024-02-21T08:15:34;10.30;99.90
12254;DHT22;6189;52.526;13.390;2024-02-21T08:18:21;10.30;99.90
12254;DHT22;6189;52.526;13.390;2024-02-21T08:21:08;10.40;99.90
12254;DHT22;6189;52.526;13.390;2024-02-21T08:23:55;10.50;99.90
12254;DHT22;6189;52.526;13.390;2024-02-21T08:26:42;10.40;99.90
12254;DHT22;6189;52.526;13.390;2024-02-21T08:29:30;10.40;99.90
12254;DHT22;6189;52.526;13.390;2024-02-21T08:32:19;10.60;99.90
12254;DHT22;6189;52.526;13.390;2024-02-21T08:35:06;10.40;99.90
12254;DHT22;6189;52.526;13.390;2024-02-21T08:37:53;10.40;99.90
12254;DHT22;6189;52.526;13.390;2024-02-21T08:40:40;10.40;99.90
12254;DHT22;6189;52.526;13.390;2024-02-21T08:43:27;10.50;99.90
12254;DHT22;6189;52.526;13.390;2024-02-21T08:46:16;10.50;99.90
12254;DHT22;6189;52.526;13.390;2024-02-21T08:49:05;10.50;99.90
12254;DHT22;6189;52.526;13.390;2024-02-21T08:51:52;10.50;99.90
12254;DHT22;6189;52.526;13.390;2024-02-21T08:54:39;10.50;99.90
12254;DHT22;6189;52.526;13.390;2024-02-21T08:57:27;10.50;99.90
12254;DHT22;6189;52.526;13.390;2024-02-21T09:00:15;10.60;99.90
12254;DHT22;6189;52.526;13.390;2024-02-21T09:03:02;10.60;99.90
12254;DHT22;6189;52.526;13.390;2024-02-21T09:05:51;10.60;99.90
12254;DHT22;6189;52.526;13.390;2024-02-21T09:08:38;11.00;99.90
12254;DHT22;6189;52.526;13.390;2024-02-21T09:11:25;10.60;99.90
12254;DHT22;6189;52.526;13.390;2024-02-21T09:14:13;10.70;99.90
12254;DHT22;6189;52.526;13.390;2024-02-21T09:17:00;10.80;99.90
12254;DHT22;6189;52.526;13.390;2024-02-21T09:19:47;10.60;99.90
12254;DHT22;6189;52.526;13.390;2024-02-21T09:22:35;10.70;99.90
12254;DHT22;6189;52.526;13.390;2024-02-21T09:25:23;10.70;99.90
12254;DHT22;6189;52.526;13.390;2024-02-21T09:28:10;10.80;99.90
12254;DHT22;6189;52.526;13.390;2024-02-21T09:30:58;10.80;99.90
12254;DHT22;6189;52.526;13.390;2024-02-21T09:33:45;10.80;99.90
12254;DHT22;6189;52.526;13.390;2024-02-21T09:36:33;10.80;99.90
12254;DHT22;6189;52.526;13.390;2024-02-21T09:39:22;10.90;99.90
12254;DHT22;6189;52.526;13.390;2024-02-21T09:42:11;10.90;99.90
12254;DHT22;6189;52.526;13.390;2024-02-21T09:44:58;10.90;99.90
12254;DHT22;6189;52.526;13.390;2024-02-21T09:47:48;10.90;99.90
12254;DHT22;6189;52.526;13.390;2024-02-21T09:50:37;10.90;99.90
12254;DHT22;6189;52.526;13.390;2024-02-21T09:53:26;11.00;99.90
12254;DHT22;6189;52.526;13.390;2024-02-21T09:56:15;11.00;99.90
12254;DHT22;6189;52.526;13.390;2024-02-21T09:59:03;11.00;99.90
12254;DHT22;6189;52.526;13.390;2024-02-21T10:01:51;11.30;99.90
12254;DHT22;6189;52.526;13.390;2024-02-21T10:04:39;11.20;99.90
12254;DHT22;6189;52.526;13.390;2024-02-21T10:07:26;11.20;99.90
12254;DHT22;6189;52.526;13.390;2024-02-21T10:10:14;11.10;99.90
12254;DHT22;6189;52.526;13.390;2024-02-21T10:13:09;11.10;99.90
12254;DHT22;6189;52.526;13.390;2024-02-21T10:16:03;11.20;99.90
12254;DHT22;6189;52.526;13.390;2024-02-21T10:18:53;11.20;99.90
12254;DHT22;6189;52.526;13.390;2024-02-21T10:21:41;11.30;99.90
12254;DHT22;6189;52.526;13.390;2024-02-21T10:24:28;11.20;99.90
12254;DHT22;6189;52.526;13.390;2024-02-21T10:27:15;11.30;99.90
12254;DHT22;6189;52.526;13.390;2024-02-21T10:30:06;11.50;99.90
12254;DHT22;6189;52.526;13.390;2024-02-21T10:32:54;11.40;99.90
12254;DHT22;6189;52.526;13.390;2024-02-21T10:35:41;11.30;99.90
12254;DHT22;6189;52.526;13.390;2024-02-21T10:38:28;11.40;99.90
12254;DHT22;6189;52.526;13.390;2024-02-21T10:41:15;11.40;99.90
12254;DHT22;6189;52.526;13.390;2024-02-21T10:44:04;11.30;99.90
12254;DHT22;6189;52.526;13.390;2024-02-21T10:46:53;11.30;99.90
12254;DHT22;6189;52.526;13.390;2024-02-21T10:49:41;11.40;99.90
12254;DHT22;6189;52.526;13.390;2024-02-21T10:52:32;11.40;99.90
12254;DHT22;6189;52.526;13.390;2024-02-21T10:55:26;11.40;99.90
12254;DHT22;6189;52.526;13.390;2024-02-21T10:58:16;11.50;99.90
12254;DHT22;6189;52.526;13.390;2024-02-21T11:01:04;11.40;99.90
12254;DHT22;6189;52.526;13.390;2024-02-21T11:03:53;11.40;99.90
12254;DHT22;6189;52.526;13.390;2024-02-21T11:06:41;11.50;99.90
12254;DHT22;6189;52.526;13.390;2024-02-21T11:09:31;11.40;99.90
12254;DHT22;6189;52.526;13.390;2024-02-21T11:12:20;11.40;99.90
12254;DHT22;6189;52.526;13.390;2024-02-21T11:15:07;11.40;99.90
12254;DHT22;6189;52.526;13.390;2024-02-21T11:17:55;11.50;99.90
12254;DHT22;6189;52.526;13.390;2024-02-21T11:20:49;11.50;99.90
12254;DHT22;6189;52.526;13.390;2024-02-21T11:23:36;11.50;99.90
12254;DHT22;6189;52.526;13.390;2024-02-21T11:26:23;11.60;99.90
12254;DHT22;6189;52.526;13.390;2024-02-21T11:29:10;11.70;99.90
12254;DHT22;6189;52.526;13.390;2024-02-21T11:31:57;11.80;99.90
12254;DHT22;6189;52.526;13.390;2024-02-21T11:34:53;11.90;99.90
12254;DHT22;6189;52.526;13.390;2024-02-21T11:37:42;11.90;99.90
12254;DHT22;6189;52.526;13.390;2024-02-21T11:40:31;12.00;99.90
12254;DHT22;6189;52.526;13.390;2024-02-21T11:43:18;12.00;99.90
12254;DHT22;6189;52.526;13.390;2024-02-21T11:46:05;12.00;99.90
12254;DHT22;6189;52.526;13.390;2024-02-21T11:48:53;12.00;99.90
12254;DHT22;6189;52.526;13.390;2024-02-21T11:51:46;12.00;99.90
12254;DHT22;6189;52.526;13.390;2024-02-21T11:54:35;12.10;99.90
12254;DHT22;6189;52.526;13.390;2024-02-21T11:57:22;12.10;99.90
12254;DHT22;6189;52.526;13.390;2024-02-21T12:00:13;12.20;99.90
12254;DHT22;6189;52.526;13.390;2024-02-21T12:03:01;12.20;99.90
12254;DHT22;6189;52.526;13.390;2024-02-21T12:05:48;12.20;99.90
12254;DHT22;6189;52.526;13.390;2024-02-21T12:08:42;12.30;99.90
12254;DHT22;6189;52.526;13.390;2024-02-21T12:11:31;12.30;99.90
12254;DHT22;6189;52.526;13.390;2024-02-21T12:14:18;12.30;99.90
12254;DHT22;6189;52.526;13.390;2024-02-21T12:17:05;12.40;99.90
12254;DHT22;6189;52.526;13.390;2024-02-21T12:19:52;12.40;99.90
12254;DHT22;6189;52.526;13.390;2024-02-21T12:22:41;12.80;99.90
12254;DHT22;6189;52.526;13.390;2024-02-21T12:25:28;12.50;99.90
12254;DHT22;6189;52.526;13.390;2024-02-21T12:28:17;12.50;99.90
12254;DHT22;6189;52.526;13.390;2024-02-21T12:31:04;12.60;99.90
12254;DHT22;6189;52.526;13.390;2024-02-21T12:33:51;12.50;99.90
12254;DHT22;6189;52.526;13.390;2024-02-21T12:36:40;12.60;99.90
12254;DHT22;6189;52.526;13.390;2024-02-21T12:39:28;12.60;99.90
12254;DHT22;6189;52.526;13.390;2024-02-21T12:42:15;12.80;99.90
12254;DHT22;6189;52.526;13.390;2024-02-21T12:45:05;12.70;99.90
12254;DHT22;6189;52.526;13.390;2024-02-21T12:47:52;12.70;99.90
12254;DHT22;6189;52.526;13.390;2024-02-21T12:50:39;12.70;99.90
12254;DHT22;6189;52.526;13.390;2024-02-21T12:53:27;12.70;99.90
12254;DHT22;6189;52.526;13.390;2024-02-21T12:56:14;12.80;99.90
12254;DHT22;6189;52.526;13.390;2024-02-21T12:59:01;12.70;99.90
12254;DHT22;6189;52.526;13.390;2024-02-21T13:01:50;12.80;99.90
12254;DHT22;6189;52.526;13.390;2024-02-21T13:04:38;12.90;99.90
12254;DHT22;6189;52.526;13.390;2024-02-21T13:07:27;12.90;99.90
12254;DHT22;6189;52.526;13.390;2024-02-21T13:10:14;12.90;99.90
12254;DHT22;6189;52.526;13.390;2024-02-21T13:13:01;12.90;99.90
12254;DHT22;6189;52.526;13.390;2024-02-21T13:15:48;12.90;99.90
12254;DHT22;6189;52.526;13.390;2024-02-21T13:18:36;12.90;99.90
12254;DHT22;6189;52.526;13.390;2024-02-21T13:21:25;12.80;99.90
12254;DHT22;6189;52.526;13.390;2024-02-21T13:24:12;12.80;99.90
12254;DHT22;6189;52.526;13.390;2024-02-21T13:26:59;12.80;99.90
12254;DHT22;6189;52.526;13.390;2024-02-21T13:29:46;12.80;99.90
12254;DHT22;6189;52.526;13.390;2024-02-21T13:32:33;12.80;99.90
12254;DHT22;6189;52.526;13.390;2024-02-21T13:35:22;12.80;99.90
12254;DHT22;6189;52.526;13.390;2024-02-21T13:38:09;12.90;99.90
12254;DHT22;6189;52.526;13.390;2024-02-21T13:40:57;12.90;99.90
12254;DHT22;6189;52.526;13.390;2024-02-21T13:43:47;12.80;99.90
12254;DHT22;6189;52.526;13.390;2024-02-21T13:46:34;12.90;99.90
12254;DHT22;6189;52.526;13.390;2024-02-21T13:49:24;12.90;99.90
12254;DHT22;6189;52.526;13.390;2024-02-21T13:52:13;12.80;99.90
12254;DHT22;6189;52.526;13.390;2024-02-21T13:55:00;12.70;99.90
12254;DHT22;6189;52.526;13.390;2024-02-21T13:57:48;12.70;99.90
12254;DHT22;6189;52.526;13.390;2024-02-21T14:00:35;12.70;99.90
12254;DHT22;6189;52.526;13.390;2024-02-21T14:03:22;12.70;99.90
12254;DHT22;6189;52.526;13.390;2024-02-21T14:06:11;12.80;99.90
12254;DHT22;6189;52.526;13.390;2024-02-21T14:09:00;12.80;99.90
12254;DHT22;6189;52.526;13.390;2024-02-21T14:11:47;12.70;99.90
12254;DHT22;6189;52.526;13.390;2024-02-21T14:14:34;12.80;99.90
12254;DHT22;6189;52.526;13.390;2024-02-21T14:17:21;12.80;99.90
12254;DHT22;6189;52.526;13.390;2024-02-21T14:20:10;12.70;99.90
12254;DHT22;6189;52.526;13.390;2024-02-21T14:22:59;12.70;99.90
12254;DHT22;6189;52.526;13.390;2024-02-21T14:25:48;12.70;99.90
12254;DHT22;6189;52.526;13.390;2024-02-21T14:28:35;12.80;99.90
12254;DHT22;6189;52.526;13.390;2024-02-21T14:31:23;12.80;99.90
12254;DHT22;6189;52.526;13.390;2024-02-21T14:34:10;12.80;99.90
12254;DHT22;6189;52.526;13.390;2024-02-21T14:36:57;12.80;99.90
12254;DHT22;6189;52.526;13.390;2024-02-21T14:39:45;12.80;99.90
12254;DHT22;6189;52.526;13.390;2024-02-21T14:42:33;12.90;99.90
12254;DHT22;6189;52.526;13.390;2024-02-21T14:45:21;12.90;99.90
12254;DHT22;6189;52.526;13.390;2024-02-21T14:48:08;12.90;99.90
12254;DHT22;6189;52.526;13.390;2024-02-21T14:50:55;13.00;99.90
12254;DHT22;6189;52.526;13.390;2024-02-21T14:53:42;13.00;99.90
12254;DHT22;6189;52.526;13.390;2024-02-21T14:56:29;12.90;99.90
12254;DHT22;6189;52.526;13.390;2024-02-21T14:59:18;12.90;99.90
12254;DHT22;6189;52.526;13.390;2024-02-21T15:02:05;12.80;99.90
12254;DHT22;6189;52.526;13.390;2024-02-21T15:04:54;12.90;99.90
12254;DHT22;6189;52.526;13.390;2024-02-21T15:07:41;12.90;99.90
12254;DHT22;6189;52.526;13.390;2024-02-21T15:10:29;12.90;99.90
12254;DHT22;6189;52.526;13.390;2024-02-21T15:13:16;12.80;99.90
12254;DHT22;6189;52.526;13.390;2024-02-21T15:16:05;12.80;99.90
12254;DHT22;6189;52.526;13.390;2024-02-21T15:18:52;12.80;99.90
12254;DHT22;6189;52.526;13.390;2024-02-21T15:21:40;12.80;99.90
12254;DHT22;6189;52.526;13.390;2024-02-21T15:24:27;12.70;99.90
12254;DHT22;6189;52.526;13.390;2024-02-21T15:27:15;12.80;99.90
12254;DHT22;6189;52.526;13.390;2024-02-21T15:30:02;12.80;99.90
12254;DHT22;6189;52.526;13.390;2024-02-21T15:32:51;12.70;99.90
12254;DHT22;6189;52.526;13.390;2024-02-21T15:35:38;12.80;99.90
12254;DHT22;6189;52.526;13.390;2024-02-21T15:38:25;12.70;99.90
12254;DHT22;6189;52.526;13.390;2024-02-21T15:41:14;12.70;99.90
12254;DHT22;6189;52.526;13.390;2024-02-21T15:44:01;12.70;99.90
12254;DHT22;6189;52.526;13.390;2024-02-21T15:46:50;12.70;99.90
12254;DHT22;6189;52.526;13.390;2024-02-21T15:49:39;12.60;99.90
12254;DHT22;6189;52.526;13.390;2024-02-21T15:52:27;12.50;99.90
12254;DHT22;6189;52.526;13.390;2024-02-21T15:55:14;12.50;99.90
12254;DHT22;6189;52.526;13.390;2024-02-21T15:58:03;12.50;99.90
12254;DHT22;6189;52.526;13.390;2024-02-21T16:00:50;12.50;99.90
12254;DHT22;6189;52.526;13.390;2024-02-21T16:03:39;12.60;99.90
12254;DHT22;6189;52.526;13.390;2024-02-21T16:06:28;12.50;99.90
12254;DHT22;6189;52.526;13.390;2024-02-21T16:09:15;12.50;99.90
12254;DHT22;6189;52.526;13.390;2024-02-21T16:12:02;12.40;99.90
12254;DHT22;6189;52.526;13.390;2024-02-21T16:14:50;12.40;99.90
12254;DHT22;6189;52.526;13.390;2024-02-21T16:17:38;12.30;99.90
12254;DHT22;6189;52.526;13.390;2024-02-21T16:20:25;12.30;99.90
12254;DHT22;6189;52.526;13.390;2024-02-21T16:23:13;12.20;99.90
12254;DHT22;6189;52.526;13.390;2024-02-21T16:26:00;12.20;99.90
12254;DHT22;6189;52.526;13.390;2024-02-21T16:28:47;12.20;99.90
12254;DHT22;6189;52.526;13.390;2024-02-21T16:31:35;12.20;99.90
12254;DHT22;6189;52.526;13.390;2024-02-21T16:34:22;12.20;99.90
12254;DHT22;6189;52.526;13.390;2024-02-21T16:37:10;12.20;99.90
12254;DHT22;6189;52.526;13.390;2024-02-21T16:39:59;12.10;99.90
12254;DHT22;6189;52.526;13.390;2024-02-21T16:42:46;12.00;99.90
12254;DHT22;6189;52.526;13.390;2024-02-21T16:45:35;12.00;99.90
12254;DHT22;6189;52.526;13.390;2024-02-21T16:48:23;11.90;99.90
12254;DHT22;6189;52.526;13.390;2024-02-21T16:51:10;11.90;99.90
12254;DHT22;6189;52.526;13.390;2024-02-21T16:53:57;11.90;99.90
12254;DHT22;6189;52.526;13.390;2024-02-21T16:56:46;11.80;99.90
12254;DHT22;6189;52.526;13.390;2024-02-21T16:59:33;11.80;99.90
12254;DHT22;6189;52.526;13.390;2024-02-21T17:02:22;11.90;99.90
12254;DHT22;6189;52.526;13.390;2024-02-21T17:05:10;11.80;99.90
12254;DHT22;6189;52.526;13.390;2024-02-21T17:07:57;11.80;99.90
12254;DHT22;6189;52.526;13.390;2024-02-21T17:10:45;11.80;99.90
12254;DHT22;6189;52.526;13.390;2024-02-21T17:13:33;11.70;99.90
12254;DHT22;6189;52.526;13.390;2024-02-21T17:16:20;11.60;99.90
12254;DHT22;6189;52.526;13.390;2024-02-21T17:19:08;11.60;99.90
12254;DHT22;6189;52.526;13.390;2024-02-21T17:21:56;11.60;99.90
12254;DHT22;6189;52.526;13.390;2024-02-21T17:24:44;11.50;99.90
12254;DHT22;6189;52.526;13.390;2024-02-21T17:27:32;11.50;99.90
12254;DHT22;6189;52.526;13.390;2024-02-21T17:30:20;11.50;99.90
12254;DHT22;6189;52.526;13.390;2024-02-21T17:33:07;11.40;99.90
12254;DHT22;6189;52.526;13.390;2024-02-21T17:35:54;11.40;99.90
12254;DHT22;6189;52.526;13.390;2024-02-21T17:38:44;11.30;99.90